Time;durP1;ratioP1;P1;durP2;ratioP2;P2;SDS_P1;SDS_P2;PMS_P1;PMS_P2;Temp;Humidity;BMP_temperature;BMP_pressure;BME280_temperature;BME280_humidity;BME280_pressure;Samples;Min_cycle;Max_cycle;Signal;HPM_P1;HPM_P2
2022/11/23 00:01:24;;;;;;;54.80;26.07;;;;;;;3.17;87.21;98155.48;1767309;81;20984;-50
2022/11/23 00:03:53;;;;;;;55.43;27.13;;;;;;;3.13;87.33;98154.77;1767043;81;20979;-43
2022/11/23 00:06:21;;;;;;;54.90;25.82;;;;;;;3.13;87.37;98160.40;1766996;81;21505;-47
2022/11/23 00:08:48;;;;;;;47.93;25.23;;;;;;;3.07;87.49;98153.29;1747806;81;21488;-43
2022/11/23 00:11:14;;;;;;;56.00;26.75;;;;;;;3.06;87.34;98152.05;1740845;82;21019;-48
2022/11/23 00:13:41;;;;;;;53.90;26.37;;;;;;;3.10;87.38;98147.56;1740676;81;21135;-44
2022/11/23 00:16:17;;;;;;;56.80;25.60;;;;;;;3.11;87.17;98142.74;1740705;82;20987;-50
2022/11/23 00:18:43;;;;;;;56.28;26.07;;;;;;;3.09;87.16;98140.20;1740999;82;21014;-50
2022/11/23 00:21:14;;;;;;;51.85;26.00;;;;;;;3.11;87.15;98137.11;1740656;82;20960;-45
2022/11/23 00:23:40;;;;;;;51.30;25.65;;;;;;;3.07;87.27;98136.41;1739739;82;20960;-46
2022/11/23 00:26:06;;;;;;;53.95;26.70;;;;;;;2.99;87.60;98135.88;1740656;82;20976;-44
2022/11/23 00:28:33;;;;;;;54.45;27.50;;;;;;;2.97;87.86;98144.19;1740705;82;21010;-43
2022/11/23 00:30:59;;;;;;;52.38;26.10;;;;;;;2.95;87.71;98148.61;1740731;82;21560;-44
2022/11/23 00:33:25;;;;;;;50.30;24.75;;;;;;;3.01;87.51;98156.13;1740742;82;21018;-51
2022/11/23 00:36:04;;;;;;;45.17;23.50;;;;;;;2.94;87.39;98159.89;1740661;82;20964;-49
2022/11/23 00:38:30;;;;;;;41.33;21.70;;;;;;;2.91;87.08;98163.94;1740650;82;20968;-42
2022/11/23 00:41:02;;;;;;;43.95;23.77;;;;;;;2.69;87.62;98156.18;1740729;82;21486;-46
2022/11/23 00:43:29;;;;;;;49.13;24.23;;;;;;;2.77;87.57;98159.78;1740607;82;21509;-48
2022/11/23 00:46:19;;;;;;;48.52;25.08;;;;;;;2.75;87.73;98157.67;1740932;82;21031;-40
2022/11/23 00:48:47;;;;;;;50.73;26.70;;;;;;;2.82;87.69;98160.41;1740667;82;20984;-44
2022/11/23 00:51:18;;;;;;;52.58;25.85;;;;;;;2.81;87.60;98160.03;1740732;81;21016;-48
2022/11/23 00:53:44;;;;;;;53.75;24.98;;;;;;;2.83;87.69;98157.75;1740697;82;21031;-43
2022/11/23 00:56:11;;;;;;;47.60;24.25;;;;;;;2.80;87.65;98152.70;1740618;81;21547;-44
2022/11/23 00:58:37;;;;;;;49.63;25.48;;;;;;;2.78;87.65;98156.25;1740674;82;20960;-44
2022/11/23 01:01:08;;;;;;;50.63;24.37;;;;;;;2.82;87.59;98157.81;1740657;82;21030;-46
2022/11/23 01:03:35;;;;;;;48.48;24.37;;;;;;;2.73;87.63;98151.27;1740668;81;21458;-43
2022/11/23 01:06:12;;;;;;;49.42;24.10;;;;;;;2.76;87.77;98156.78;1740594;82;21019;-44
2022/11/23 01:08:38;;;;;;;43.60;22.48;;;;;;;2.79;87.48;98165.28;1755098;81;21503;-49
2022/11/23 01:11:09;;;;;;;54.58;24.77;;;;;;;2.67;87.61;98170.55;1767122;81;21504;-44
2022/11/23 01:13:37;;;;;;;49.18;24.32;;;;;;;2.72;87.47;98170.80;1766827;81;20970;-46
2022/11/23 01:16:03;;;;;;;45.12;24.18;;;;;;;2.72;87.61;98169.50;1767072;81;21413;-51
2022/11/23 01:18:29;;;;;;;51.92;24.37;;;;;;;2.69;87.57;98175.22;1767064;81;21475;-46
2022/11/23 01:20:55;;;;;;;49.08;24.40;;;;;;;2.65;87.68;98169.73;1767068;81;21018;-50
2022/11/23 01:23:21;;;;;;;53.60;25.52;;;;;;;2.58;88.07;98174.79;1737312;81;21034;-44
2022/11/23 01:25:47;;;;;;;47.67;24.98;;;;;;;2.59;88.15;98173.06;1766983;81;20975;-47
2022/11/23 01:28:13;;;;;;;49.25;26.02;;;;;;;2.62;88.03;98165.13;1767032;81;20986;-46
2022/11/23 01:30:38;;;;;;;51.88;23.95;;;;;;;2.65;87.89;98160.66;1767063;81;21037;-46
2022/11/23 01:33:04;;;;;;;53.80;25.85;;;;;;;2.66;87.84;98166.71;1767025;81;20998;-40
2022/11/23 01:35:30;;;;;;;56.70;26.77;;;;;;;2.64;87.79;98169.37;1766965;81;20998;-46
2022/11/23 01:37:56;;;;;;;55.63;27.67;;;;;;;2.64;87.89;98171.13;1767025;80;20994;-46
2022/11/23 01:40:22;;;;;;;51.40;24.60;;;;;;;2.68;87.92;98172.22;1767093;81;20959;-51
2022/11/23 01:42:59;;;;;;;57.35;27.93;;;;;;;2.69;87.70;98179.11;1767104;81;21013;-44
2022/11/23 01:45:39;;;;;;;64.22;28.38;;;;;;;2.71;87.78;98179.05;1766950;81;20998;-50
2022/11/23 01:48:15;;;;;;;59.00;27.20;;;;;;;2.74;87.81;98179.37;1766987;80;20959;-50
2022/11/23 01:50:42;;;;;;;61.27;28.60;;;;;;;2.75;87.61;98171.52;1767352;81;20971;-46
2022/11/23 01:53:08;;;;;;;57.58;26.80;;;;;;;2.79;87.54;98178.27;1767011;81;21157;-51
2022/11/23 01:55:35;;;;;;;55.90;25.45;;;;;;;2.81;87.40;98168.66;1767000;80;20990;-50
2022/11/23 01:58:02;;;;;;;55.40;26.13;;;;;;;2.79;87.20;98169.18;1767263;81;20986;-41
2022/11/23 02:00:28;;;;;;;54.63;26.10;;;;;;;2.78;87.21;98173.13;1767203;81;21478;-48
2022/11/23 02:02:57;;;;;;;55.25;26.60;;;;;;;2.78;87.20;98175.73;1766961;81;21582;-43
2022/11/23 02:05:29;;;;;;;58.38;27.25;;;;;;;2.76;87.20;98180.14;1735916;81;20986;-43
2022/11/23 02:07:55;;;;;;;50.03;25.25;;;;;;;2.78;87.11;98174.43;1763858;80;20986;-46
2022/11/23 02:10:22;;;;;;;56.33;26.70;;;;;;;2.81;87.01;98180.80;1748555;82;21030;-49
2022/11/23 02:12:48;;;;;;;58.10;27.52;;;;;;;2.80;87.06;98180.40;1748451;82;21488;-50
2022/11/23 02:15:14;;;;;;;60.83;26.50;;;;;;;2.78;87.03;98171.37;1748200;82;20995;-48
2022/11/23 02:17:42;;;;;;;49.15;24.37;;;;;;;2.80;87.00;98179.10;1748272;81;20995;-48
2022/11/23 02:20:14;;;;;;;49.70;24.55;;;;;;;2.75;86.79;98173.25;1748520;82;21003;-49
2022/11/23 02:23:05;;;;;;;52.78;25.15;;;;;;;2.71;86.63;98175.16;1748271;82;21564;-48
2022/11/23 02:25:47;;;;;;;51.15;24.43;;;;;;;2.67;86.75;98174.44;1748157;82;21032;-46
2022/11/23 02:28:18;;;;;;;47.55;24.27;;;;;;;2.72;86.88;98170.34;1748285;82;20951;-48
2022/11/23 02:30:47;;;;;;;51.53;24.67;;;;;;;2.78;86.79;98171.83;1748336;82;20991;-49
2022/11/23 02:33:13;;;;;;;46.55;22.90;;;;;;;2.74;86.79;98171.12;1748172;82;21454;-43
2022/11/23 02:35:52;;;;;;;58.73;25.90;;;;;;;2.58;86.65;98173.95;1748231;82;20987;-46
2022/11/23 02:38:18;;;;;;;52.88;24.50;;;;;;;2.76;86.64;98174.95;1747802;82;20979;-43
2022/11/23 02:43:14;;;;;;;50.25;24.25;;;;;;;2.80;86.61;98177.80;1735602;82;21065;-46
2022/11/23 02:45:53;;;;;;;53.37;24.23;;;;;;;2.80;86.56;98179.97;1752196;82;20954;-46
2022/11/23 02:48:20;;;;;;;49.23;24.82;;;;;;;2.82;86.37;98182.05;1751625;82;21069;-48
2022/11/23 02:50:46;;;;;;;54.30;24.15;;;;;;;2.70;86.55;98177.35;1752088;82;20947;-46
2022/11/23 02:53:12;;;;;;;50.10;24.98;;;;;;;2.68;86.68;98186.50;1752174;82;20970;-42
2022/11/23 02:55:38;;;;;;;48.13;23.62;;;;;;;2.72;86.71;98184.62;1752031;82;21471;-43
2022/11/23 02:58:05;;;;;;;46.23;24.15;;;;;;;2.73;86.81;98186.75;1752012;82;20981;-49
2022/11/23 03:00:32;;;;;;;49.55;24.70;;;;;;;2.73;86.67;98193.24;1752100;82;20950;-45
2022/11/23 03:03:01;;;;;;;41.13;22.07;;;;;;;2.79;86.58;98186.05;1752170;82;21448;-48
2022/11/23 03:05:27;;;;;;;55.85;25.37;;;;;;;2.68;86.40;98184.36;1752049;82;21626;-49
2022/11/23 03:07:53;;;;;;;49.55;25.48;;;;;;;2.73;86.59;98182.86;1752314;82;20982;-47
2022/11/23 03:10:20;;;;;;;51.85;23.95;;;;;;;2.75;86.71;98187.53;1752027;82;20970;-48
2022/11/23 03:12:46;;;;;;;64.40;31.97;;;;;;;2.78;86.65;98184.81;1752149;82;20943;-47
2022/11/23 03:15:12;;;;;;;62.95;30.88;;;;;;;2.81;86.47;98193.33;1752088;82;21474;-43
2022/11/23 03:17:38;;;;;;;68.33;32.85;;;;;;;2.83;86.36;98195.40;1752029;82;20973;-40
2022/11/23 03:20:05;;;;;;;80.35;36.88;;;;;;;2.87;86.47;98198.71;1752186;82;20994;-50
2022/11/23 03:22:31;;;;;;;72.58;33.58;;;;;;;2.89;86.43;98194.30;1752171;82;21443;-46
2022/11/23 03:24:57;;;;;;;68.05;29.42;;;;;;;2.86;86.23;98193.98;1752006;82;20973;-45
2022/11/23 03:27:23;;;;;;;51.42;23.62;;;;;;;2.83;86.40;98194.10;1752040;82;21048;-47
2022/11/23 03:29:49;;;;;;;48.78;22.82;;;;;;;2.80;86.57;98192.08;1752116;82;20996;-43
2022/11/23 03:32:14;;;;;;;50.38;23.67;;;;;;;2.80;86.47;98196.84;1752214;82;20973;-46
2022/11/23 03:34:40;;;;;;;49.20;23.12;;;;;;;2.77;86.49;98198.27;1752172;82;20950;-47
2022/11/23 03:37:06;;;;;;;51.73;24.30;;;;;;;2.81;86.60;98194.63;1752183;82;20982;-46
2022/11/23 03:39:31;;;;;;;55.20;24.18;;;;;;;2.82;86.75;98188.53;1752213;82;20981;-48
2022/11/23 03:41:57;;;;;;;51.40;22.77;;;;;;;2.84;86.75;98188.02;1751545;82;20998;-49
2022/11/23 03:44:23;;;;;;;46.13;21.62;;;;;;;2.90;86.67;98184.31;1746124;82;21494;-47
2022/11/23 03:46:52;;;;;;;54.25;23.47;;;;;;;2.88;86.45;98190.86;1742477;82;21464;-49
2022/11/23 03:49:17;;;;;;;52.45;23.42;;;;;;;2.89;86.59;98189.10;1742466;82;20994;-49
2022/11/23 03:51:43;;;;;;;50.25;22.67;;;;;;;2.85;86.59;98190.14;1742442;82;21001;-49
2022/11/23 03:54:09;;;;;;;49.48;23.10;;;;;;;2.85;86.72;98195.34;1742488;82;20971;-41
2022/11/23 03:56:35;;;;;;;51.92;23.60;;;;;;;2.85;86.76;98190.98;1742497;82;21562;-45
2022/11/23 03:59:01;;;;;;;49.55;21.93;;;;;;;2.86;86.68;98185.36;1742366;82;21451;-45
2022/11/23 04:01:26;;;;;;;52.38;23.18;;;;;;;2.87;86.69;98188.33;1742463;82;21479;-50
2022/11/23 04:03:52;;;;;;;45.60;22.15;;;;;;;2.84;86.65;98189.77;1742445;82;20970;-43
2022/11/23 04:06:18;;;;;;;48.13;22.25;;;;;;;2.83;86.79;98190.20;1742390;82;20967;-49
2022/11/23 04:08:44;;;;;;;56.45;24.63;;;;;;;2.85;86.75;98188.84;1742426;82;21010;-40
2022/11/23 04:11:10;;;;;;;55.00;24.63;;;;;;;2.86;86.70;98188.78;1742398;82;21483;-47
2022/11/23 04:13:36;;;;;;;45.80;22.20;;;;;;;2.87;86.77;98190.92;1742304;82;21018;-47
2022/11/23 04:16:02;;;;;;;45.15;22.58;;;;;;;2.86;86.44;98191.84;1742355;82;21018;-43
2022/11/23 04:18:28;;;;;;;54.35;25.37;;;;;;;2.84;86.55;98192.38;1742371;82;20989;-52
2022/11/23 04:20:53;;;;;;;62.03;27.30;;;;;;;2.83;86.78;98188.07;1742362;82;20978;-48
2022/11/23 04:23:19;;;;;;;52.90;25.62;;;;;;;2.83;86.70;98185.02;1742359;82;20969;-46
2022/11/23 04:25:45;;;;;;;57.20;25.10;;;;;;;2.83;86.96;98188.07;1742327;82;21015;-47
2022/11/23 04:28:11;;;;;;;58.38;26.93;;;;;;;2.83;86.95;98190.20;1742385;82;20958;-50
2022/11/23 04:30:37;;;;;;;48.28;23.05;;;;;;;2.83;86.78;98191.97;1742540;82;21475;-45
2022/11/23 04:33:02;;;;;;;53.13;24.92;;;;;;;2.82;86.79;98192.42;1742416;82;21483;-43
2022/11/23 04:35:28;;;;;;;45.48;23.60;;;;;;;2.86;86.79;98184.89;1742390;82;20973;-42
2022/11/23 04:37:54;;;;;;;44.18;22.17;;;;;;;2.86;86.63;98184.06;1742357;82;20978;-47
2022/11/23 04:40:20;;;;;;;48.33;22.15;;;;;;;2.84;86.46;98177.63;1742329;82;20974;-49
2022/11/23 04:42:45;;;;;;;54.40;23.95;;;;;;;2.86;86.46;98175.80;1747252;82;21014;-46
2022/11/23 04:45:11;;;;;;;52.17;23.67;;;;;;;2.92;86.53;98176.46;1752045;82;20958;-42
2022/11/23 04:47:37;;;;;;;44.27;22.05;;;;;;;2.87;86.36;98177.94;1751862;81;20982;-47
2022/11/23 04:50:04;;;;;;;44.63;21.82;;;;;;;2.85;86.37;98180.59;1751868;82;20998;-45
2022/11/23 04:52:29;;;;;;;44.65;21.75;;;;;;;2.82;86.24;98187.66;1752112;82;21033;-47
2022/11/23 04:54:55;;;;;;;47.40;22.13;;;;;;;2.76;86.57;98182.73;1751846;82;20931;-43
2022/11/23 04:57:21;;;;;;;62.75;27.35;;;;;;;2.78;86.67;98180.92;1751906;82;20954;-47
2022/11/23 04:59:47;;;;;;;56.23;25.90;;;;;;;2.69;87.03;98176.52;1751867;82;21010;-48
2022/11/23 05:02:13;;;;;;;54.95;25.25;;;;;;;2.66;87.16;98181.83;1751846;82;20981;-44
2022/11/23 05:04:39;;;;;;;62.17;26.42;;;;;;;2.66;87.41;98175.33;1751890;82;20966;-46
2022/11/23 05:07:05;;;;;;;66.22;27.50;;;;;;;2.70;87.44;98178.65;1751884;82;21458;-47
2022/11/23 05:09:31;;;;;;;62.05;27.48;;;;;;;2.68;87.39;98171.38;1751850;82;21009;-47
2022/11/23 05:11:57;;;;;;;70.80;28.40;;;;;;;2.68;87.56;98168.33;1751895;82;21463;-43
2022/11/23 05:14:23;;;;;;;69.50;28.27;;;;;;;2.72;87.53;98166.91;1751865;82;21320;-49
2022/11/23 05:16:49;;;;;;;71.42;28.20;;;;;;;2.73;87.41;98164.25;1751844;82;21372;-43
2022/11/23 05:19:15;;;;;;;67.82;29.63;;;;;;;2.71;87.63;98171.27;1751881;82;21012;-47
2022/11/23 05:21:41;;;;;;;72.87;30.97;;;;;;;2.75;87.80;98171.95;1751888;82;20966;-49
2022/11/23 05:24:07;;;;;;;71.37;30.82;;;;;;;2.73;87.86;98177.23;1751837;82;21581;-42
2022/11/23 05:26:32;;;;;;;65.12;29.75;;;;;;;2.69;88.06;98170.03;1751862;82;21458;-47
2022/11/23 05:28:58;;;;;;;59.25;28.20;;;;;;;2.71;87.96;98174.30;1751933;82;20966;-48
2022/11/23 05:31:24;;;;;;;67.72;28.15;;;;;;;2.69;87.95;98177.81;1751826;82;20974;-46
2022/11/23 05:33:50;;;;;;;56.28;25.08;;;;;;;2.67;88.05;98174.44;1751844;82;20931;-46
2022/11/23 05:36:16;;;;;;;58.38;26.95;;;;;;;2.69;87.88;98182.14;1751895;82;21090;-45
2022/11/23 05:38:42;;;;;;;53.30;24.85;;;;;;;2.63;87.88;98181.94;1751795;82;21141;-47
2022/11/23 05:41:08;;;;;;;56.88;25.72;;;;;;;2.63;87.88;98181.94;1751800;82;20950;-46
2022/11/23 05:43:33;;;;;;;48.33;22.62;;;;;;;2.64;87.98;98177.16;1752029;82;21483;-47
2022/11/23 05:46:00;;;;;;;49.48;23.67;;;;;;;2.64;87.90;98182.34;1752102;82;21534;-43
2022/11/23 05:48:26;;;;;;;63.33;29.18;;;;;;;2.62;87.74;98180.27;1752249;82;21486;-53
2022/11/23 05:50:53;;;;;;;73.62;33.38;;;;;;;2.60;87.67;98178.63;1752069;82;21013;-48
2022/11/23 05:53:19;;;;;;;69.25;31.48;;;;;;;2.59;87.71;98180.84;1752038;82;20977;-49
2022/11/23 05:55:45;;;;;;;65.97;28.35;;;;;;;2.57;87.95;98179.61;1752063;82;20966;-47
2022/11/23 05:58:10;;;;;;;55.15;25.02;;;;;;;2.56;87.83;98175.31;1752096;82;20978;-41
2022/11/23 06:00:36;;;;;;;50.70;23.42;;;;;;;2.50;88.21;98169.92;1752162;82;21002;-46
2022/11/23 06:03:02;;;;;;;55.50;23.12;;;;;;;;;;1752066;82;21561;-46
2022/11/23 06:05:29;;;;;;;46.55;22.75;;;;;;;2.56;88.04;98179.66;1752063;81;21077;-47
2022/11/23 06:07:55;;;;;;;49.18;22.55;;;;;;;2.56;88.15;98179.20;1752139;82;21518;-45
2022/11/23 06:10:21;;;;;;;50.03;23.65;;;;;;;2.54;88.16;98178.42;1752063;82;21493;-43
2022/11/23 06:12:48;;;;;;;48.68;23.47;;;;;;;2.58;88.22;98177.84;1752086;82;20973;-54
2022/11/23 06:15:15;;;;;;;48.45;22.30;;;;;;;2.60;87.91;98180.79;1752198;82;20978;-47
2022/11/23 06:17:41;;;;;;;43.40;22.37;;;;;;;2.48;88.05;98187.30;1752311;81;20982;-48
2022/11/23 06:20:08;;;;;;;45.38;21.90;;;;;;;2.45;88.23;98191.77;1752078;82;20982;-49
2022/11/23 06:22:34;;;;;;;46.33;22.45;;;;;;;2.45;88.20;98195.66;1752124;82;20982;-46
2022/11/23 06:25:00;;;;;;;48.48;22.13;;;;;;;2.49;88.14;98201.12;1752021;82;20974;-46
2022/11/23 06:27:26;;;;;;;52.90;22.30;;;;;;;2.49;87.86;98199.39;1752051;82;21055;-43
2022/11/23 06:29:52;;;;;;;46.30;20.97;;;;;;;2.52;87.68;98199.70;1752072;81;20962;-48
2022/11/23 06:32:18;;;;;;;45.92;22.55;;;;;;;2.45;87.85;98204.75;1752047;82;20974;-41
2022/11/23 06:34:43;;;;;;;43.23;21.37;;;;;;;2.42;87.87;98202.27;1752045;82;21436;-51
2022/11/23 06:37:10;;;;;;;46.58;21.05;;;;;;;2.39;87.70;98206.30;1752007;82;20977;-46
2022/11/23 06:39:36;;;;;;;41.23;22.02;;;;;;;2.40;87.72;98209.27;1752411;82;20958;-48
2022/11/23 06:42:02;;;;;;;41.05;20.45;;;;;;;2.34;87.75;98212.11;1752164;81;21463;-48
2022/11/23 06:44:27;;;;;;;43.60;21.12;;;;;;;2.34;87.75;98212.11;1752030;82;21848;-41
2022/11/23 06:46:53;;;;;;;42.78;20.05;;;;;;;2.34;87.60;98212.11;1752093;82;21010;-46
2022/11/23 06:49:20;;;;;;;41.28;21.12;;;;;;;2.33;87.47;98207.81;1752073;81;21025;-45
2022/11/23 06:51:46;;;;;;;41.00;19.60;;;;;;;2.35;87.50;98212.48;1752127;82;20978;-47
2022/11/23 06:54:12;;;;;;;42.35;21.52;;;;;;;2.33;87.41;98218.19;1752045;81;20973;-49
2022/11/23 06:56:38;;;;;;;37.85;19.00;;;;;;;2.25;87.58;98212.85;1752087;81;21002;-49
2022/11/23 06:59:04;;;;;;;41.90;18.52;;;;;;;2.28;87.45;98218.39;1752041;82;20977;-45
2022/11/23 07:01:30;;;;;;;37.88;18.25;;;;;;;2.25;87.60;98220.63;1752191;82;20974;-51
2022/11/23 07:03:55;;;;;;;36.15;18.85;;;;;;;2.29;87.40;98222.23;1752060;82;20970;-41
2022/11/23 07:06:21;;;;;;;34.63;16.77;;;;;;;2.24;87.21;98224.15;1751981;82;21514;-45
2022/11/23 07:08:47;;;;;;;35.23;16.93;;;;;;;2.25;87.10;98224.52;1752025;82;20966;-44
2022/11/23 07:11:13;;;;;;;32.05;16.17;;;;;;;2.20;87.19;98224.31;1752104;82;20957;-46
2022/11/23 07:13:39;;;;;;;33.63;16.95;;;;;;;2.22;87.10;98227.26;1752016;81;20942;-46
2022/11/23 07:16:05;;;;;;;29.90;16.23;;;;;;;2.16;86.93;98227.47;1752102;82;21017;-42
2022/11/23 07:18:32;;;;;;;36.10;17.83;;;;;;;2.15;86.92;98229.69;1752295;82;20978;-49
2022/11/23 07:20:58;;;;;;;33.23;16.77;;;;;;;2.20;87.00;98236.85;1752053;82;21328;-44
2022/11/23 07:23:24;;;;;;;35.65;16.87;;;;;;;2.23;86.92;98227.63;1752116;82;20978;-45
2022/11/23 07:25:50;;;;;;;39.65;18.32;;;;;;;2.16;87.22;98227.47;1752051;82;21467;-55
2022/11/23 07:28:16;;;;;;;37.67;19.62;;;;;;;2.25;87.17;98234.90;1752079;82;20966;-45
2022/11/23 07:30:42;;;;;;;39.67;19.35;;;;;;;2.15;87.25;98241.80;1752040;82;21467;-46
2022/11/23 07:33:10;;;;;;;39.90;18.67;;;;;;;2.21;87.19;98238.98;1751999;82;20971;-46
2022/11/23 07:35:39;;;;;;;42.13;19.02;;;;;;;2.25;87.13;98238.79;1751973;82;21459;-49
2022/11/23 07:38:07;;;;;;;34.65;18.70;;;;;;;2.23;87.10;98236.71;1752131;82;20965;-55
2022/11/23 07:40:38;;;;;;;40.25;19.35;;;;;;;2.28;87.25;98236.09;1752030;82;21449;-40
2022/11/23 07:43:05;;;;;;;92.78;46.75;;;;;;;2.27;87.03;98240.91;1750883;82;20994;-46
2022/11/23 07:45:32;;;;;;;46.30;21.75;;;;;;;2.32;87.13;98242.47;1752214;82;21018;-44
2022/11/23 07:48:00;;;;;;;41.83;19.05;;;;;;;2.36;86.95;98236.25;1752276;82;20946;-41
2022/11/23 07:50:29;;;;;;;43.38;18.50;;;;;;;2.39;86.83;98246.52;1752342;82;20985;-49
2022/11/23 07:53:00;;;;;;;43.10;19.75;;;;;;;2.38;86.78;98234.44;1752096;82;21046;-47
2022/11/23 07:55:27;;;;;;;35.73;17.25;;;;;;;2.41;86.49;98244.24;1752083;82;21014;-48
2022/11/23 07:57:54;;;;;;;39.08;17.82;;;;;;;2.40;86.37;98240.41;1752014;82;21013;-49
2022/11/23 08:00:21;;;;;;;36.23;17.27;;;;;;;2.44;86.20;98248.48;1752246;82;21026;-48
2022/11/23 08:02:47;;;;;;;43.40;17.82;;;;;;;2.39;86.24;98248.65;1752107;82;20946;-46
2022/11/23 08:05:13;;;;;;;38.53;17.62;;;;;;;2.39;86.24;98248.65;1752058;82;21487;-44
2022/11/23 08:07:39;;;;;;;47.73;20.30;;;;;;;2.47;86.22;98258.72;1752093;82;20982;-47
2022/11/23 08:10:05;;;;;;;41.20;19.05;;;;;;;2.43;86.46;98254.56;1752117;82;21428;-49
2022/11/23 08:12:31;;;;;;;46.90;18.98;;;;;;;2.50;86.10;98258.61;1752006;82;21022;-48
2022/11/23 08:14:57;;;;;;;41.58;18.32;;;;;;;2.51;86.32;98256.42;1752083;82;20970;-49
2022/11/23 08:17:23;;;;;;;43.55;18.95;;;;;;;2.55;86.14;98265.77;1752153;82;21065;-46
2022/11/23 08:19:48;;;;;;;43.65;18.30;;;;;;;2.49;86.02;98262.97;1752123;81;20939;-43
2022/11/23 08:22:15;;;;;;;41.00;17.20;;;;;;;2.47;86.18;98260.89;1752126;82;20954;-47
2022/11/23 08:24:41;;;;;;;35.88;16.52;;;;;;;2.52;85.99;98263.75;1752396;82;20974;-45
2022/11/23 08:27:07;;;;;;;35.68;16.62;;;;;;;2.52;85.77;98269.77;1752162;81;20942;-49
2022/11/23 08:29:33;;;;;;;44.53;21.95;;;;;;;2.48;85.48;98274.23;1752166;82;21005;-45
2022/11/23 08:31:59;;;;;;;42.78;19.25;;;;;;;2.45;85.46;98273.52;1752177;81;21597;-44
2022/11/23 08:34:24;;;;;;;46.75;20.05;;;;;;;2.53;85.83;98272.78;1752256;82;21459;-43
2022/11/23 08:36:50;;;;;;;39.13;18.12;;;;;;;2.55;85.71;98272.69;1752170;81;21054;-47
2022/11/23 08:39:18;;;;;;;46.53;17.95;;;;;;;2.56;85.63;98280.42;1752195;81;21397;-47
2022/11/23 08:41:43;;;;;;;;;;;;;;;2.61;85.55;98278.95;1754739;82;20970;-42
2022/11/23 08:44:11;;;;;;;45.38;17.73;;;;;;;2.64;85.58;98288.77;1752004;82;20151;-47
2022/11/23 08:46:37;;;;;;;33.73;16.27;;;;;;;2.67;85.42;98287.36;1752215;82;21014;-48
2022/11/23 08:49:04;;;;;;;48.67;19.67;;;;;;;2.73;85.47;98285.40;1752431;81;21491;-45
2022/11/23 08:51:30;;;;;;;39.77;17.90;;;;;;;2.79;85.36;98286.48;1752386;82;21450;-43
2022/11/23 08:53:56;;;;;;;39.40;17.10;;;;;;;2.82;84.88;98288.93;1751864;81;21013;-47
2022/11/23 08:56:21;;;;;;;37.23;16.97;;;;;;;2.84;84.88;98294.93;1750968;82;20985;-42
2022/11/23 08:58:47;;;;;;;39.53;17.57;;;;;;;2.82;84.78;98290.23;1751969;82;21017;-48
2022/11/23 09:01:16;;;;;;;42.80;18.55;;;;;;;2.86;84.66;98289.22;1752127;81;20954;-44
2022/11/23 09:03:42;;;;;;;41.13;18.80;;;;;;;2.91;84.68;98285.99;1752104;81;21788;-45
2022/11/23 09:06:09;;;;;;;39.08;17.57;;;;;;;2.90;84.30;98280.86;1752512;82;20974;-51
2022/11/23 09:08:35;;;;;;;41.68;19.15;;;;;;;2.88;84.24;98274.42;1752124;81;20954;-44
2022/11/23 09:11:04;;;;;;;44.77;20.65;;;;;;;2.98;84.43;98273.13;1752088;81;20981;-40
2022/11/23 09:13:30;;;;;;;38.35;19.98;;;;;;;3.04;84.48;98267.70;1751316;82;21005;-45
2022/11/23 09:16:01;;;;;;;41.92;18.67;;;;;;;3.08;84.50;98271.02;1752086;82;21009;-50
2022/11/23 09:18:29;;;;;;;38.65;17.77;;;;;;;3.18;84.37;98262.37;1752159;82;21450;-50
2022/11/23 09:20:56;;;;;;;;;;;;;;;3.20;84.12;98264.02;1754777;82;20985;-43
2022/11/23 09:23:22;;;;;;;42.98;20.48;;;;;;;3.17;83.30;98263.30;1752225;82;20102;-50
2022/11/23 09:25:49;;;;;;;47.93;20.37;;;;;;;3.21;83.51;98254.45;1752213;82;21009;-46
2022/11/23 09:28:18;;;;;;;46.55;20.40;;;;;;;3.26;83.40;98260.31;1752152;82;21506;-44
2022/11/23 09:30:46;;;;;;;51.98;21.40;;;;;;;3.31;83.36;98260.09;1752113;81;21463;-41
2022/11/23 09:33:12;;;;;;;47.45;21.85;;;;;;;3.34;83.15;98255.62;1752100;82;20965;-48
2022/11/23 09:35:38;;;;;;;46.33;20.55;;;;;;;3.37;82.74;98254.20;1752134;81;20978;-47
2022/11/23 09:38:04;;;;;;;42.25;21.07;;;;;;;3.37;82.33;98255.96;1752159;82;21860;-44
2022/11/23 09:40:35;;;;;;;43.55;22.95;;;;;;;3.44;82.40;98257.39;1752073;82;20950;-47
2022/11/23 09:43:24;;;;;;;40.83;21.15;;;;;;;3.50;81.98;98262.77;1751675;82;20971;-50
2022/11/23 09:45:54;;;;;;;42.90;20.25;;;;;;;3.48;81.76;98260.70;1714286;82;20989;-49
2022/11/23 09:49:01;;;;;;;44.85;23.15;;;;;;;3.54;81.71;98255.23;1752170;82;21478;-41
2022/11/23 09:51:27;;;;;;;37.50;18.70;;;;;;;3.57;81.22;98246.00;1752111;82;21021;-49
2022/11/23 09:54:01;;;;;;;35.95;17.25;;;;;;;3.57;80.98;98242.94;1752129;82;21082;-43
2022/11/23 09:56:31;;;;;;;35.45;17.87;;;;;;;3.64;81.06;98233.96;1752091;82;20982;-42
2022/11/23 09:59:02;;;;;;;41.18;18.85;;;;;;;3.70;80.92;98229.41;1751861;82;21455;-47
2022/11/23 10:01:32;;;;;;;32.00;16.40;;;;;;;3.78;80.96;98227.30;1751545;81;21062;-48
2022/11/23 10:03:57;;;;;;;33.67;18.45;;;;;;;3.70;79.91;98222.44;1748466;81;20991;-46
2022/11/23 10:06:27;;;;;;;36.98;19.90;;;;;;;3.80;80.44;98218.53;1750901;82;20983;-51
2022/11/23 10:09:19;;;;;;;35.92;18.70;;;;;;;3.87;79.86;98209.97;1750672;81;21586;-54
2022/11/23 10:12:17;;;;;;;38.00;20.23;;;;;;;3.98;79.38;98209.48;1747620;81;20967;-43
2022/11/23 10:14:57;;;;;;;38.23;19.20;;;;;;;4.18;79.75;98204.66;1750766;82;20963;-46
2022/11/23 10:17:52;;;;;;;43.48;20.43;;;;;;;4.37;79.58;98203.36;1750762;82;21027;-45
2022/11/23 10:20:29;;;;;;;44.88;21.97;;;;;;;4.41;78.97;98205.72;1750752;81;21030;-48
2022/11/23 10:23:00;;;;;;;51.08;23.52;;;;;;;4.55;78.77;98206.38;1750074;82;21015;-51
2022/11/23 10:25:35;;;;;;;44.53;23.67;;;;;;;4.73;79.05;98205.08;1750110;82;21015;-43
2022/11/23 10:28:12;;;;;;;49.83;23.05;;;;;;;4.87;78.59;98202.64;1750990;82;21042;-48
2022/11/23 10:30:38;;;;;;;56.35;26.17;;;;;;;5.10;79.05;98195.45;1753135;80;20978;-48
2022/11/23 10:33:27;;;;;;;48.95;23.60;;;;;;;5.27;78.03;98197.20;1759296;80;20982;-50
2022/11/23 10:35:53;;;;;;;44.50;21.15;;;;;;;5.41;77.38;98190.81;1781005;80;21448;-44
2022/11/23 10:38:21;;;;;;;43.58;21.35;;;;;;;5.49;75.49;98188.63;1763179;81;20995;-44
2022/11/23 10:41:10;;;;;;;43.58;18.90;;;;;;;5.59;75.47;98189.02;1731102;81;21026;-43
2022/11/23 10:44:05;;;;;;;38.75;19.73;;;;;;;5.76;75.19;98182.89;1739368;79;21022;-42
2022/11/23 10:46:36;;;;;;;36.70;18.82;;;;;;;5.90;75.67;98179.08;1788721;79;20983;-46
2022/11/23 10:49:21;;;;;;;34.70;18.45;;;;;;;5.96;73.89;98181.38;1765082;80;20966;-45
2022/11/23 10:52:04;;;;;;;39.85;18.10;;;;;;;5.97;73.32;98187.47;1780656;79;20966;-48
2022/11/23 10:54:42;;;;;;;39.45;19.35;;;;;;;6.00;73.57;98182.05;1772760;80;21479;-48
2022/11/23 10:57:41;;;;;;;;;;;;;;;5.99;72.94;98181.70;1765645;80;21091;-51
2022/11/23 11:00:15;;;;;;;52.60;24.80;;;;;;;5.90;72.34;98179.55;1778052;80;20138;-43
2022/11/23 11:02:53;;;;;;;49.25;21.82;;;;;;;5.90;73.58;98182.16;1774690;80;21030;-45
2022/11/23 11:05:38;;;;;;;82.57;38.55;;;;;;;5.76;72.60;98187.64;1726920;80;21066;-49
2022/11/23 11:08:17;;;;;;;74.15;34.03;;;;;;;5.60;72.02;98184.16;1768614;80;21003;-49
2022/11/23 11:10:49;;;;;;;58.05;30.57;;;;;;;5.62;73.08;98186.25;1767488;80;20959;-48
2022/11/23 11:13:31;;;;;;;46.40;23.02;;;;;;;5.68;74.33;98184.61;1778941;80;21030;-45
2022/11/23 11:16:04;;;;;;;38.65;18.98;;;;;;;5.69;74.62;98177.63;1769248;80;21536;-49
2022/11/23 11:18:35;;;;;;;40.88;19.37;;;;;;;5.69;74.35;98180.23;1769507;80;20979;-50
2022/11/23 11:21:12;;;;;;;37.30;16.73;;;;;;;5.72;73.95;98190.03;1759743;81;21010;-46
2022/11/23 11:23:40;;;;;;;45.48;20.02;;;;;;;5.73;74.36;98185.22;1718030;80;20987;-50
2022/11/23 11:26:14;;;;;;;41.68;19.65;;;;;;;5.67;73.95;98194.65;1750989;82;20987;-46
2022/11/23 11:28:43;;;;;;;41.05;19.87;;;;;;;5.63;73.70;98194.44;1785128;79;20970;-45
2022/11/23 11:31:38;;;;;;;47.73;21.00;;;;;;;5.62;73.76;98188.86;1782140;79;20954;-45
2022/11/23 11:34:30;;;;;;;44.60;21.33;;;;;;;5.65;74.30;98187.37;1761728;80;20995;-49
2022/11/23 11:37:24;;;;;;;42.53;19.85;;;;;;;5.70;74.34;98187.98;1771405;80;21010;-47